sensor_id;sensor_type;location;lat;lon;timestamp;temperature;humidity
45233;DHT22;30969;51.052;17.056;2023-10-31T00:02:57;16.70;76.10
45233;DHT22;30969;51.052;17.056;2023-10-31T00:08:01;16.70;75.90
45233;DHT22;30969;51.052;17.056;2023-10-31T00:13:05;16.80;76.00
45233;DHT22;30969;51.052;17.056;2023-10-31T00:18:09;16.80;75.80
45233;DHT22;30969;51.052;17.056;2023-10-31T00:23:12;16.80;75.80
45233;DHT22;30969;51.052;17.056;2023-10-31T00:28:17;16.80;75.70
45233;DHT22;30969;51.052;17.056;2023-10-31T00:33:20;16.80;75.60
45233;DHT22;30969;51.052;17.056;2023-10-31T00:38:24;16.80;75.50
45233;DHT22;30969;51.052;17.056;2023-10-31T00:43:28;16.80;75.40
45233;DHT22;30969;51.052;17.056;2023-10-31T00:48:32;16.90;75.40
45233;DHT22;30969;51.052;17.056;2023-10-31T00:53:38;16.90;75.40
45233;DHT22;30969;51.052;17.056;2023-10-31T00:58:43;16.90;75.30
45233;DHT22;30969;51.052;17.056;2023-10-31T01:03:47;16.90;75.30
45233;DHT22;30969;51.052;17.056;2023-10-31T01:08:50;16.90;75.20
45233;DHT22;30969;51.052;17.056;2023-10-31T01:13:55;16.90;75.10
45233;DHT22;30969;51.052;17.056;2023-10-31T01:18:58;16.90;75.10
45233;DHT22;30969;51.052;17.056;2023-10-31T01:24:01;16.90;75.10
45233;DHT22;30969;51.052;17.056;2023-10-31T01:29:06;17.00;75.10
45233;DHT22;30969;51.052;17.056;2023-10-31T01:34:10;17.00;75.10
45233;DHT22;30969;51.052;17.056;2023-10-31T01:39:13;17.00;74.90
45233;DHT22;30969;51.052;17.056;2023-10-31T01:44:19;17.00;74.90
45233;DHT22;30969;51.052;17.056;2023-10-31T01:49:22;17.00;74.90
45233;DHT22;30969;51.052;17.056;2023-10-31T01:54:26;17.00;74.90
45233;DHT22;30969;51.052;17.056;2023-10-31T01:59:31;17.00;74.90
45233;DHT22;30969;51.052;17.056;2023-10-31T02:04:34;17.00;74.90
45233;DHT22;30969;51.052;17.056;2023-10-31T02:09:38;17.00;74.90
45233;DHT22;30969;51.052;17.056;2023-10-31T02:14:42;17.00;74.70
45233;DHT22;30969;51.052;17.056;2023-10-31T02:19:46;17.00;74.60
45233;DHT22;30969;51.052;17.056;2023-10-31T02:24:50;17.00;74.60
45233;DHT22;30969;51.052;17.056;2023-10-31T02:29:54;17.00;74.50
45233;DHT22;30969;51.052;17.056;2023-10-31T02:34:57;17.00;74.40
45233;DHT22;30969;51.052;17.056;2023-10-31T02:40:02;17.00;75.40
45233;DHT22;30969;51.052;17.056;2023-10-31T02:45:06;17.00;74.40
45233;DHT22;30969;51.052;17.056;2023-10-31T02:50:10;17.00;74.30
45233;DHT22;30969;51.052;17.056;2023-10-31T02:55:14;17.00;74.30
45233;DHT22;30969;51.052;17.056;2023-10-31T03:00:18;17.00;74.20
45233;DHT22;30969;51.052;17.056;2023-10-31T03:05:22;17.00;74.20
45233;DHT22;30969;51.052;17.056;2023-10-31T03:10:26;17.00;74.10
45233;DHT22;30969;51.052;17.056;2023-10-31T03:15:32;16.90;74.00
45233;DHT22;30969;51.052;17.056;2023-10-31T03:20:35;17.00;73.80
45233;DHT22;30969;51.052;17.056;2023-10-31T03:25:40;17.00;73.80
45233;DHT22;30969;51.052;17.056;2023-10-31T03:30:44;17.00;73.60
45233;DHT22;30969;51.052;17.056;2023-10-31T03:35:48;17.00;73.50
45233;DHT22;30969;51.052;17.056;2023-10-31T03:40:53;17.10;73.50
45233;DHT22;30969;51.052;17.056;2023-10-31T03:45:56;17.10;73.40
45233;DHT22;30969;51.052;17.056;2023-10-31T03:50:59;17.10;73.30
45233;DHT22;30969;51.052;17.056;2023-10-31T03:56:05;17.10;73.20
45233;DHT22;30969;51.052;17.056;2023-10-31T04:01:08;17.10;73.10
45233;DHT22;30969;51.052;17.056;2023-10-31T04:06:12;17.10;73.10
45233;DHT22;30969;51.052;17.056;2023-10-31T04:11:16;17.20;73.10
45233;DHT22;30969;51.052;17.056;2023-10-31T04:16:20;17.20;73.10
45233;DHT22;30969;51.052;17.056;2023-10-31T04:21:23;17.20;72.80
45233;DHT22;30969;51.052;17.056;2023-10-31T04:26:28;17.20;72.80
45233;DHT22;30969;51.052;17.056;2023-10-31T04:31:31;17.20;72.80
45233;DHT22;30969;51.052;17.056;2023-10-31T04:36:45;17.20;72.60
45233;DHT22;30969;51.052;17.056;2023-10-31T04:41:49;17.20;72.50
45233;DHT22;30969;51.052;17.056;2023-10-31T04:46:53;17.20;72.30
45233;DHT22;30969;51.052;17.056;2023-10-31T04:51:56;17.30;71.80
45233;DHT22;30969;51.052;17.056;2023-10-31T04:57:04;17.40;71.50
45233;DHT22;30969;51.052;17.056;2023-10-31T05:02:07;17.40;71.10
45233;DHT22;30969;51.052;17.056;2023-10-31T05:07:10;17.50;70.70
45233;DHT22;30969;51.052;17.056;2023-10-31T05:12:16;17.60;70.70
45233;DHT22;30969;51.052;17.056;2023-10-31T05:17:19;17.60;70.50
45233;DHT22;30969;51.052;17.056;2023-10-31T05:22:23;17.60;70.40
45233;DHT22;30969;51.052;17.056;2023-10-31T05:27:28;17.70;70.30
45233;DHT22;30969;51.052;17.056;2023-10-31T05:32:35;17.70;70.30
45233;DHT22;30969;51.052;17.056;2023-10-31T05:37:39;17.70;70.40
45233;DHT22;30969;51.052;17.056;2023-10-31T05:42:44;17.70;70.70
45233;DHT22;30969;51.052;17.056;2023-10-31T05:47:48;17.70;71.00
45233;DHT22;30969;51.052;17.056;2023-10-31T05:52:51;17.60;71.20
45233;DHT22;30969;51.052;17.056;2023-10-31T05:57:57;17.60;71.50
45233;DHT22;30969;51.052;17.056;2023-10-31T06:03:00;17.60;71.80
45233;DHT22;30969;51.052;17.056;2023-10-31T06:08:04;17.60;72.40
45233;DHT22;30969;51.052;17.056;2023-10-31T06:13:10;17.50;72.90
45233;DHT22;30969;51.052;17.056;2023-10-31T06:18:19;17.50;73.50
45233;DHT22;30969;51.052;17.056;2023-10-31T06:23:49;17.40;74.10
45233;DHT22;30969;51.052;17.056;2023-10-31T06:28:54;17.40;74.70
45233;DHT22;30969;51.052;17.056;2023-10-31T06:40:48;17.20;75.70
45233;DHT22;30969;51.052;17.056;2023-10-31T06:45:55;17.20;76.30
45233;DHT22;30969;51.052;17.056;2023-10-31T06:51:05;17.10;76.60
45233;DHT22;30969;51.052;17.056;2023-10-31T06:56:08;17.10;76.90
45233;DHT22;30969;51.052;17.056;2023-10-31T07:01:13;17.10;77.20
45233;DHT22;30969;51.052;17.056;2023-10-31T07:06:20;17.00;77.20
45233;DHT22;30969;51.052;17.056;2023-10-31T07:11:24;17.00;77.40
45233;DHT22;30969;51.052;17.056;2023-10-31T07:16:29;17.00;77.40
45233;DHT22;30969;51.052;17.056;2023-10-31T07:21:36;17.00;77.50
45233;DHT22;30969;51.052;17.056;2023-10-31T07:26:40;17.00;77.50
45233;DHT22;30969;51.052;17.056;2023-10-31T07:31:45;17.00;77.60
45233;DHT22;30969;51.052;17.056;2023-10-31T07:37:09;16.90;77.60
45233;DHT22;30969;51.052;17.056;2023-10-31T07:42:13;16.90;77.70
45233;DHT22;30969;51.052;17.056;2023-10-31T07:47:18;16.90;77.80
45233;DHT22;30969;51.052;17.056;2023-10-31T07:52:21;16.90;78.00
45233;DHT22;30969;51.052;17.056;2023-10-31T07:57:24;16.90;77.90
45233;DHT22;30969;51.052;17.056;2023-10-31T08:02:29;16.90;77.70
45233;DHT22;30969;51.052;17.056;2023-10-31T08:07:34;16.90;77.50
45233;DHT22;30969;51.052;17.056;2023-10-31T08:12:37;16.90;77.50
45233;DHT22;30969;51.052;17.056;2023-10-31T08:17:46;16.90;77.50
45233;DHT22;30969;51.052;17.056;2023-10-31T08:28:32;16.80;78.00
45233;DHT22;30969;51.052;17.056;2023-10-31T08:33:51;16.70;78.70
45233;DHT22;30969;51.052;17.056;2023-10-31T08:38:54;16.60;79.00
45233;DHT22;30969;51.052;17.056;2023-10-31T08:43:57;16.50;79.50
45233;DHT22;30969;51.052;17.056;2023-10-31T08:49:03;16.50;80.10
45233;DHT22;30969;51.052;17.056;2023-10-31T08:54:07;16.40;80.40
45233;DHT22;30969;51.052;17.056;2023-10-31T08:59:10;16.40;80.40
45233;DHT22;30969;51.052;17.056;2023-10-31T09:04:15;16.40;80.40
45233;DHT22;30969;51.052;17.056;2023-10-31T09:09:19;16.40;80.40
45233;DHT22;30969;51.052;17.056;2023-10-31T09:14:22;16.40;80.40
45233;DHT22;30969;51.052;17.056;2023-10-31T09:19:28;16.40;80.50
45233;DHT22;30969;51.052;17.056;2023-10-31T09:24:32;16.30;80.30
45233;DHT22;30969;51.052;17.056;2023-10-31T09:29:36;16.40;80.20
45233;DHT22;30969;51.052;17.056;2023-10-31T09:34:41;16.50;80.00
45233;DHT22;30969;51.052;17.056;2023-10-31T09:52:10;16.50;79.70
45233;DHT22;30969;51.052;17.056;2023-10-31T09:57:22;16.60;79.80
45233;DHT22;30969;51.052;17.056;2023-10-31T10:02:34;16.60;79.60
45233;DHT22;30969;51.052;17.056;2023-10-31T10:07:42;16.60;79.60
45233;DHT22;30969;51.052;17.056;2023-10-31T10:12:53;16.70;79.60
45233;DHT22;30969;51.052;17.056;2023-10-31T10:17:58;16.70;79.30
45233;DHT22;30969;51.052;17.056;2023-10-31T10:23:09;16.70;79.10
45233;DHT22;30969;51.052;17.056;2023-10-31T10:28:13;16.70;78.80
45233;DHT22;30969;51.052;17.056;2023-10-31T10:33:17;16.70;78.60
45233;DHT22;30969;51.052;17.056;2023-10-31T10:38:26;16.70;78.50
45233;DHT22;30969;51.052;17.056;2023-10-31T10:43:37;16.70;78.50
45233;DHT22;30969;51.052;17.056;2023-10-31T10:48:40;16.70;78.60
45233;DHT22;30969;51.052;17.056;2023-10-31T10:53:50;16.70;78.20
45233;DHT22;30969;51.052;17.056;2023-10-31T10:58:55;16.60;77.00
45233;DHT22;30969;51.052;17.056;2023-10-31T11:04:01;16.40;76.30
45233;DHT22;30969;51.052;17.056;2023-10-31T11:09:06;16.30;76.20
45233;DHT22;30969;51.052;17.056;2023-10-31T11:14:10;16.30;76.50
45233;DHT22;30969;51.052;17.056;2023-10-31T11:19:15;16.20;76.20
45233;DHT22;30969;51.052;17.056;2023-10-31T11:24:20;16.20;76.00
45233;DHT22;30969;51.052;17.056;2023-10-31T11:29:25;16.10;75.70
45233;DHT22;30969;51.052;17.056;2023-10-31T11:34:29;16.10;74.70
45233;DHT22;30969;51.052;17.056;2023-10-31T11:39:40;16.10;74.20
45233;DHT22;30969;51.052;17.056;2023-10-31T11:44:54;16.10;73.80
45233;DHT22;30969;51.052;17.056;2023-10-31T11:49:58;16.10;73.50
45233;DHT22;30969;51.052;17.056;2023-10-31T11:55:03;16.10;73.30
45233;DHT22;30969;51.052;17.056;2023-10-31T12:00:16;16.10;73.20
45233;DHT22;30969;51.052;17.056;2023-10-31T12:05:23;16.10;72.90
45233;DHT22;30969;51.052;17.056;2023-10-31T12:10:28;16.10;72.20
45233;DHT22;30969;51.052;17.056;2023-10-31T12:15:33;16.10;71.40
45233;DHT22;30969;51.052;17.056;2023-10-31T12:20:46;16.10;70.90
45233;DHT22;30969;51.052;17.056;2023-10-31T12:25:56;16.10;70.00
45233;DHT22;30969;51.052;17.056;2023-10-31T12:31:00;16.10;68.80
45233;DHT22;30969;51.052;17.056;2023-10-31T12:36:05;16.10;68.40
45233;DHT22;30969;51.052;17.056;2023-10-31T12:41:10;16.10;68.00
45233;DHT22;30969;51.052;17.056;2023-10-31T12:46:27;16.20;67.40
45233;DHT22;30969;51.052;17.056;2023-10-31T12:51:31;16.20;66.90
45233;DHT22;30969;51.052;17.056;2023-10-31T12:56:36;16.20;67.20
45233;DHT22;30969;51.052;17.056;2023-10-31T13:01:42;16.20;67.20
45233;DHT22;30969;51.052;17.056;2023-10-31T13:06:54;16.20;67.20
45233;DHT22;30969;51.052;17.056;2023-10-31T13:12:00;16.20;66.80
45233;DHT22;30969;51.052;17.056;2023-10-31T13:17:04;16.10;66.20
45233;DHT22;30969;51.052;17.056;2023-10-31T13:22:07;16.10;66.00
45233;DHT22;30969;51.052;17.056;2023-10-31T13:27:12;16.10;66.70
45233;DHT22;30969;51.052;17.056;2023-10-31T13:32:18;16.10;66.40
45233;DHT22;30969;51.052;17.056;2023-10-31T13:37:22;16.10;66.70
45233;DHT22;30969;51.052;17.056;2023-10-31T13:42:27;16.10;66.70
45233;DHT22;30969;51.052;17.056;2023-10-31T13:47:31;16.10;66.80
45233;DHT22;30969;51.052;17.056;2023-10-31T13:52:35;16.10;66.90
45233;DHT22;30969;51.052;17.056;2023-10-31T13:57:41;16.10;67.30
45233;DHT22;30969;51.052;17.056;2023-10-31T14:02:47;16.10;67.70
45233;DHT22;30969;51.052;17.056;2023-10-31T14:07:51;16.10;67.90
45233;DHT22;30969;51.052;17.056;2023-10-31T14:12:57;16.10;67.50
45233;DHT22;30969;51.052;17.056;2023-10-31T14:18:00;16.10;67.60
45233;DHT22;30969;51.052;17.056;2023-10-31T14:23:04;16.10;67.80
45233;DHT22;30969;51.052;17.056;2023-10-31T14:28:10;16.10;67.90
45233;DHT22;30969;51.052;17.056;2023-10-31T14:33:14;16.10;68.00
45233;DHT22;30969;51.052;17.056;2023-10-31T14:38:17;16.10;67.90
45233;DHT22;30969;51.052;17.056;2023-10-31T14:43:22;16.10;67.90
45233;DHT22;30969;51.052;17.056;2023-10-31T14:48:26;16.00;67.60
45233;DHT22;30969;51.052;17.056;2023-10-31T14:53:31;16.00;67.40
45233;DHT22;30969;51.052;17.056;2023-10-31T14:58:36;16.00;67.40
45233;DHT22;30969;51.052;17.056;2023-10-31T15:03:40;16.00;67.10
45233;DHT22;30969;51.052;17.056;2023-10-31T15:08:44;16.00;67.00
45233;DHT22;30969;51.052;17.056;2023-10-31T15:13:48;16.00;66.90
45233;DHT22;30969;51.052;17.056;2023-10-31T15:18:53;15.90;67.00
45233;DHT22;30969;51.052;17.056;2023-10-31T15:23:56;15.90;66.90
45233;DHT22;30969;51.052;17.056;2023-10-31T15:29:01;15.90;67.00
45233;DHT22;30969;51.052;17.056;2023-10-31T15:34:05;15.90;66.80
45233;DHT22;30969;51.052;17.056;2023-10-31T15:39:08;15.80;66.60
45233;DHT22;30969;51.052;17.056;2023-10-31T15:44:14;15.80;66.40
45233;DHT22;30969;51.052;17.056;2023-10-31T15:49:17;15.80;66.70
45233;DHT22;30969;51.052;17.056;2023-10-31T15:54:21;15.70;66.30
45233;DHT22;30969;51.052;17.056;2023-10-31T15:59:26;15.70;66.20
45233;DHT22;30969;51.052;17.056;2023-10-31T16:04:30;15.70;66.10
45233;DHT22;30969;51.052;17.056;2023-10-31T16:09:33;15.70;66.30
45233;DHT22;30969;51.052;17.056;2023-10-31T16:14:39;15.70;66.10
45233;DHT22;30969;51.052;17.056;2023-10-31T16:19:42;15.70;66.10
45233;DHT22;30969;51.052;17.056;2023-10-31T16:24:46;15.60;65.80
45233;DHT22;30969;51.052;17.056;2023-10-31T16:29:52;15.60;65.90
45233;DHT22;30969;51.052;17.056;2023-10-31T16:34:55;15.60;66.10
45233;DHT22;30969;51.052;17.056;2023-10-31T16:40:02;15.60;66.30
45233;DHT22;30969;51.052;17.056;2023-10-31T16:45:08;15.60;66.60
45233;DHT22;30969;51.052;17.056;2023-10-31T16:50:11;15.60;66.60
45233;DHT22;30969;51.052;17.056;2023-10-31T16:55:15;15.60;66.30
45233;DHT22;30969;51.052;17.056;2023-10-31T17:00:20;15.50;66.30
45233;DHT22;30969;51.052;17.056;2023-10-31T17:05:24;15.60;66.20
45233;DHT22;30969;51.052;17.056;2023-10-31T17:10:27;15.60;66.10
45233;DHT22;30969;51.052;17.056;2023-10-31T17:15:32;15.50;65.90
45233;DHT22;30969;51.052;17.056;2023-10-31T17:20:36;15.50;66.00
45233;DHT22;30969;51.052;17.056;2023-10-31T17:25:39;15.50;66.20
45233;DHT22;30969;51.052;17.056;2023-10-31T17:30:46;15.40;66.20
45233;DHT22;30969;51.052;17.056;2023-10-31T17:35:49;15.40;66.30
45233;DHT22;30969;51.052;17.056;2023-10-31T17:40:53;15.30;66.00
45233;DHT22;30969;51.052;17.056;2023-10-31T17:45:58;15.30;66.10
45233;DHT22;30969;51.052;17.056;2023-10-31T17:51:01;15.30;66.00
45233;DHT22;30969;51.052;17.056;2023-10-31T17:56:05;15.30;66.00
45233;DHT22;30969;51.052;17.056;2023-10-31T18:01:10;15.20;65.80
45233;DHT22;30969;51.052;17.056;2023-10-31T18:06:14;15.20;65.70
45233;DHT22;30969;51.052;17.056;2023-10-31T18:11:17;15.20;65.60
45233;DHT22;30969;51.052;17.056;2023-10-31T18:16:24;15.20;65.70
45233;DHT22;30969;51.052;17.056;2023-10-31T18:21:31;15.20;65.70
45233;DHT22;30969;51.052;17.056;2023-10-31T18:26:38;15.20;65.40
45233;DHT22;30969;51.052;17.056;2023-10-31T18:31:43;15.20;65.60
45233;DHT22;30969;51.052;17.056;2023-10-31T18:36:47;15.20;65.60
45233;DHT22;30969;51.052;17.056;2023-10-31T18:41:51;15.20;65.60
45233;DHT22;30969;51.052;17.056;2023-10-31T18:47:13;15.20;65.20
45233;DHT22;30969;51.052;17.056;2023-10-31T18:52:17;15.20;65.40
45233;DHT22;30969;51.052;17.056;2023-10-31T18:57:21;15.10;65.40
45233;DHT22;30969;51.052;17.056;2023-10-31T19:02:27;15.10;65.60
45233;DHT22;30969;51.052;17.056;2023-10-31T19:07:31;15.10;65.60
45233;DHT22;30969;51.052;17.056;2023-10-31T19:12:35;15.10;65.60
45233;DHT22;30969;51.052;17.056;2023-10-31T19:17:40;15.10;65.50
45233;DHT22;30969;51.052;17.056;2023-10-31T19:22:46;15.10;65.60
45233;DHT22;30969;51.052;17.056;2023-10-31T19:27:50;15.10;65.50
45233;DHT22;30969;51.052;17.056;2023-10-31T19:32:55;15.10;65.60
45233;DHT22;30969;51.052;17.056;2023-10-31T19:38:00;15.10;65.50
45233;DHT22;30969;51.052;17.056;2023-10-31T19:43:05;15.00;65.50
45233;DHT22;30969;51.052;17.056;2023-10-31T19:53:39;15.00;65.20
45233;DHT22;30969;51.052;17.056;2023-10-31T19:58:43;15.00;65.40
45233;DHT22;30969;51.052;17.056;2023-10-31T20:03:46;15.00;65.50
45233;DHT22;30969;51.052;17.056;2023-10-31T20:08:51;14.90;65.50
45233;DHT22;30969;51.052;17.056;2023-10-31T20:13:55;14.90;65.60
45233;DHT22;30969;51.052;17.056;2023-10-31T20:18:59;14.90;65.80
45233;DHT22;30969;51.052;17.056;2023-10-31T20:24:04;14.90;65.80
45233;DHT22;30969;51.052;17.056;2023-10-31T20:29:07;14.90;65.90
45233;DHT22;30969;51.052;17.056;2023-10-31T20:34:14;14.90;66.10
45233;DHT22;30969;51.052;17.056;2023-10-31T20:39:27;14.90;66.10
45233;DHT22;30969;51.052;17.056;2023-10-31T20:44:31;14.80;66.10
45233;DHT22;30969;51.052;17.056;2023-10-31T20:49:35;14.80;66.10
45233;DHT22;30969;51.052;17.056;2023-10-31T20:54:40;14.80;66.00
45233;DHT22;30969;51.052;17.056;2023-10-31T21:05:14;14.80;66.00
45233;DHT22;30969;51.052;17.056;2023-10-31T21:10:19;14.80;65.90
45233;DHT22;30969;51.052;17.056;2023-10-31T21:15:23;14.80;65.90
45233;DHT22;30969;51.052;17.056;2023-10-31T21:20:27;14.80;66.00
45233;DHT22;30969;51.052;17.056;2023-10-31T21:25:31;14.80;66.00
45233;DHT22;30969;51.052;17.056;2023-10-31T21:30:35;14.80;66.00
45233;DHT22;30969;51.052;17.056;2023-10-31T21:35:39;14.70;66.00
45233;DHT22;30969;51.052;17.056;2023-10-31T21:40:47;14.70;66.10
45233;DHT22;30969;51.052;17.056;2023-10-31T21:45:51;14.70;66.30
45233;DHT22;30969;51.052;17.056;2023-10-31T21:50:55;14.70;66.40
45233;DHT22;30969;51.052;17.056;2023-10-31T21:56:02;14.70;66.60
45233;DHT22;30969;51.052;17.056;2023-10-31T22:01:06;14.70;66.60
45233;DHT22;30969;51.052;17.056;2023-10-31T22:06:09;14.60;66.60
45233;DHT22;30969;51.052;17.056;2023-10-31T22:11:15;14.60;66.70
45233;DHT22;30969;51.052;17.056;2023-10-31T22:16:18;14.60;66.70
45233;DHT22;30969;51.052;17.056;2023-10-31T22:21:22;14.60;66.80
45233;DHT22;30969;51.052;17.056;2023-10-31T22:26:27;14.60;66.80
45233;DHT22;30969;51.052;17.056;2023-10-31T22:31:31;14.50;66.70
45233;DHT22;30969;51.052;17.056;2023-10-31T22:36:39;14.60;66.80
45233;DHT22;30969;51.052;17.056;2023-10-31T22:41:44;14.50;66.70
45233;DHT22;30969;51.052;17.056;2023-10-31T22:46:47;14.50;66.80
45233;DHT22;30969;51.052;17.056;2023-10-31T22:51:50;14.50;66.90
45233;DHT22;30969;51.052;17.056;2023-10-31T22:56:56;14.50;66.90
45233;DHT22;30969;51.052;17.056;2023-10-31T23:01:59;14.50;67.00
45233;DHT22;30969;51.052;17.056;2023-10-31T23:07:02;14.50;67.10
45233;DHT22;30969;51.052;17.056;2023-10-31T23:12:08;14.50;67.20
45233;DHT22;30969;51.052;17.056;2023-10-31T23:17:11;14.40;67.10
45233;DHT22;30969;51.052;17.056;2023-10-31T23:22:14;14.50;67.30
45233;DHT22;30969;51.052;17.056;2023-10-31T23:27:19;14.40;67.30
45233;DHT22;30969;51.052;17.056;2023-10-31T23:32:23;14.40;67.30
45233;DHT22;30969;51.052;17.056;2023-10-31T23:37:27;14.40;67.30
45233;DHT22;30969;51.052;17.056;2023-10-31T23:42:31;14.40;67.30
45233;DHT22;30969;51.052;17.056;2023-10-31T23:47:35;14.40;67.40
45233;DHT22;30969;51.052;17.056;2023-10-31T23:52:39;14.40;67.30
45233;DHT22;30969;51.052;17.056;2023-10-31T23:57:43;14.40;67.20
